All Spectrum Aviation - Van Nuys Airport - KVNY

HOME

Condor Squadron KVNY Webcam

Visit our Electronics Store

Condor Squadron Webcam - Van Nuys Airport - KVNY
Picture taken: Sun, 21 Apr 2019 05:58:20 -0700
YouTube Channel!    Latest Timelapse Movie    Full Size Image    Regular Size Image    

2019/04/21 11:51 KVNY 211151Z AUTO 15003KT 10SM SCT013 OVC038 12/09 A2999 RMK AO2 SLP150 T01220094 10150 20122 51002

HOME

Condor Squadron KVNY Webcam

Visit our Electronics Store